CheckWX is a tool to help pilots better visualize weather data.  It is not intended as a substitute for an official pre-flight weather briefing.

19:19:03 UTC

EEPU METAR
Pärnu Airport
Pärnu, Estonia
Current

6 hours ago

EEPU 261250Z 23020KT 3600 RA BR BKN014 10/09 Q0999
Observed
May-26 @ 12:50 UTC
Wind
  • 230° at 20 KTS
Visibility
3,605 meters
Flight Rules
IFR
Conditions
Rain, Mist
Cloud Levels
  • Broken at 1,400' AGL
Temperature
10°C / 50°F
Dewpoint
C / 48°F
Humidity
94%
Altimeter
29.5" Hg
Pressure
998.92 hPa
Previous

7 hours ago

EEPU 261150Z 21013KT 9999 -RA SCT006 BKN011 12/09 Q1000
Observed
May-26 @ 11:50 UTC
Wind
  • 210° at 13 KTS
Visibility
10,000+ meters
Flight Rules
MVFR
Conditions
Light Rain
Cloud Levels
  • Scattered at 600' AGL
  • Broken at 1,100' AGL
Temperature
12°C / 54°F
Dewpoint
C / 48°F
Humidity
82%
Altimeter
29.53" Hg
Pressure
999.92 hPa
Previous

8 hours ago

EEPU 261050Z 23014KT 180V240 9999 -RA BKN007 12/09 Q1000
Observed
May-26 @ 10:50 UTC
Wind
  • 230° at 14 KTS
Visibility
10,000+ meters
Flight Rules
IFR
Conditions
Light Rain
Cloud Levels
  • Broken at 700' AGL
Temperature
12°C / 54°F
Dewpoint
C / 48°F
Humidity
82%
Altimeter
29.53" Hg
Pressure
999.92 hPa